Porterville, CA (93257)

8:30 AM PST on February 13, 2016 (GMT -0800)
Orchard Ridge | | Change Station
CLOSE
Current Station
Personal Weather Station
Location: Porterville, CA
Elevation: 423 ft
Nearby Weather Stations

Elev 423 ft 36.09 °N, 119.06 °W | Updated 5 seconds ago

Fog
Fog
52.7 °F
Feels Like 52.7 °F
N
0.0
Wind Variable Wind from WNW
Gusts 0.0 mph

Today
High -- | Low -- °F
--% Chance of Precip.
Yesterday
High -- | Low -- °F
Precip. -- in
Pressure 30.28 in
Visibility 0.2 miles
Clouds Mostly Cloudy 100 ft
Dew Point 52 °F
Humidity 97%
Rainfall 0.00 in
Snow Depth Not available.
6:46 AM 5:35 PM
Waxing Crescent, 32% visible
METAR KVIS 131556Z AUTO 17003KT M1/4SM FG BKN001 08/08 A3025 RMK AO2 SLP254 T00830078
Pressure 30.28 in
Visibility 0.2 miles
Clouds Mostly Cloudy 100 ft
Dew Point 52 °F
Humidity 97%
Rainfall 0.00 in
Snow Depth Not available.
6:46 AM 5:35 PM
Waxing Crescent, 32% visible
METAR KVIS 131556Z AUTO 17003KT M1/4SM FG BKN001 08/08 A3025 RMK AO2 SLP254 T00830078

10-Day Weather Forecast

Almanac

Astronomy

Feb. 13, 2016 Rise Set
Actual Time
Civil Twilight
Nautical Twilight
Astronomical Twilight
Moon
Length of Visible Light
Length of Day
Tomorrow will be .
, % of the Moon is Illuminated

Today's Extremes

State Highs State Lows

Community

WunderPhotos

Upload Photos

1,892,599 photos uploaded!

WunderBlog® & News

Nearby

Air Quality

  Air Quality AQ Index Pollutant
Not available.

Snow Depth

Station Depth Elevation

Earthquake Activity

City Distance Mag. Time & Date
Minimum magnitude displayed is 2.5.

Coastal Water Temperatures

Place Temperature

Stations

Nearby Weather Stations

Station Location Temp. Windchill Dew Point Humidity Wind Precip. Elev Updated Type
                   

Watches & Warnings

There are currently no watches in effect.